Time;durP1;ratioP1;P1;durP2;ratioP2;P2;SDS_P1;SDS_P2;PMS_P1;PMS_P2;Temp;Humidity;BMP_temperature;BMP_pressure;BME280_temperature;BME280_humidity;BME280_pressure;Samples;Min_cycle;Max_cycle;Signal;HPM_P1;HPM_P2
2023/03/27 00:02:15;;;;;;;20.00;3.90;;;;;;;1.78;100.00;101393.69;5033266;28;20124;-61
2023/03/27 00:04:41;;;;;;;16.02;3.38;;;;;;;1.77;100.00;101395.38;5034030;28;20072;-61
2023/03/27 00:07:06;;;;;;;18.60;4.10;;;;;;;1.89;100.00;101397.91;5032556;28;20538;-61
2023/03/27 00:09:32;;;;;;;19.63;3.88;;;;;;;1.84;100.00;101401.78;5033477;28;20033;-61
2023/03/27 00:11:58;;;;;;;15.35;3.30;;;;;;;1.80;100.00;101405.75;5033558;28;20091;-61
2023/03/27 00:14:23;;;;;;;18.30;3.60;;;;;;;1.76;100.00;101410.50;5032974;28;20500;-61
2023/03/27 00:16:49;;;;;;;22.33;4.10;;;;;;;1.81;100.00;101414.28;5033423;28;20652;-61
2023/03/27 00:19:15;;;;;;;18.65;3.53;;;;;;;1.76;100.00;101416.47;5032472;28;20084;-61
2023/03/27 00:21:43;;;;;;;21.08;3.72;;;;;;;1.71;100.00;101416.91;5033494;28;20017;-60
2023/03/27 00:24:09;;;;;;;19.42;3.50;;;;;;;1.67;100.00;101425.06;5032977;28;20524;-61
2023/03/27 00:26:36;;;;;;;18.27;4.07;;;;;;;1.63;100.00;101440.06;5032694;28;20344;-61
2023/03/27 00:29:03;;;;;;;18.23;3.90;;;;;;;1.50;100.00;101439.94;5033151;28;20025;-61
2023/03/27 00:31:28;;;;;;;19.50;4.10;;;;;;;1.55;100.00;101443.72;5033373;28;20017;-61
2023/03/27 00:33:54;;;;;;;14.27;3.42;;;;;;;1.50;100.00;101442.47;5032129;28;20040;-61
2023/03/27 00:36:20;;;;;;;16.50;4.05;;;;;;;1.47;100.00;101439.69;5033323;28;20022;-61
2023/03/27 00:38:45;;;;;;;16.08;4.10;;;;;;;1.54;100.00;101449.53;5033085;28;20104;-61
2023/03/27 00:41:11;;;;;;;12.80;3.65;;;;;;;1.48;100.00;101446.53;5032226;28;20465;-61
2023/03/27 00:43:42;;;;;;;17.50;4.10;;;;;;;1.44;100.00;101447.09;5033228;28;20025;-61
2023/03/27 00:46:26;;;;;;;11.75;3.47;;;;;;;1.43;100.00;101456.38;5032825;28;20048;-61
2023/03/27 00:48:53;;;;;;;16.90;3.67;;;;;;;1.43;100.00;101450.38;5032253;28;20560;-61
2023/03/27 00:51:21;;;;;;;14.10;3.70;;;;;;;1.44;100.00;101452.16;5032976;28;20033;-61
2023/03/27 00:53:47;;;;;;;;;;;;;;;1.52;100.00;101463.78;5033497;28;20037;-61
2023/03/27 00:56:15;;;;;;;13.75;3.75;;;;;;;1.51;100.00;101462.03;5031969;28;19909;-61
2023/03/27 00:58:46;;;;;;;22.05;4.18;;;;;;;1.52;100.00;101465.44;5032904;28;20538;-61
2023/03/27 01:01:14;;;;;;;16.40;3.75;;;;;;;1.57;100.00;101474.31;5032378;28;20120;-61
2023/03/27 01:03:40;;;;;;;;;;;;;;;1.66;100.00;101479.19;5032068;28;20083;-61
2023/03/27 01:06:06;;;;;;;17.77;3.78;;;;;;;1.70;100.00;101487.16;5032356;28;20371;-61
2023/03/27 01:08:35;;;;;;;17.73;4.03;;;;;;;1.67;100.00;101481.84;5031805;28;20053;-61
2023/03/27 01:11:21;;;;;;;13.23;3.10;;;;;;;1.73;100.00;101486.50;5032682;28;20025;-61
2023/03/27 01:14:13;;;;;;;16.65;3.97;;;;;;;1.71;100.00;101494.00;5032282;28;20037;-61
2023/03/27 01:17:00;;;;;;;18.60;3.70;;;;;;;1.72;100.00;101495.78;5032111;28;20032;-61
2023/03/27 01:20:08;;;;;;;15.98;3.63;;;;;;;1.78;100.00;101500.44;5032901;28;20022;-61
2023/03/27 01:23:16;;;;;;;16.70;3.90;;;;;;;1.80;100.00;101493.84;5031857;28;20021;-61
2023/03/27 01:26:08;;;;;;;15.40;4.10;;;;;;;1.81;100.00;101491.41;5032684;28;20025;-61
2023/03/27 01:28:43;;;;;;;13.43;3.60;;;;;;;1.79;100.00;101489.50;5032650;28;20104;-61
2023/03/27 01:31:32;;;;;;;22.15;4.43;;;;;;;1.80;100.00;101488.75;5031667;28;20029;-61
2023/03/27 01:34:30;;;;;;;17.58;4.25;;;;;;;1.86;100.00;101504.47;5032352;28;20026;-60
2023/03/27 01:37:23;;;;;;;18.70;4.05;;;;;;;1.79;100.00;101508.16;5031428;28;20087;-61
2023/03/27 01:40:11;;;;;;;15.52;4.30;;;;;;;1.85;100.00;101507.78;5032625;28;20060;-61
2023/03/27 01:43:11;;;;;;;14.38;4.38;;;;;;;1.84;100.00;101516.16;5032622;28;20061;-61
2023/03/27 01:45:49;;;;;;;17.02;4.72;;;;;;;1.80;100.00;101514.16;5031689;28;20037;-61
2023/03/27 01:48:14;;;;;;;12.77;4.18;;;;;;;1.71;100.00;101516.00;5032086;28;20878;-61
2023/03/27 01:50:51;;;;;;;19.17;4.43;;;;;;;1.66;100.00;101520.72;5032279;28;20493;-61
2023/03/27 01:53:22;;;;;;;15.45;3.85;;;;;;;1.52;100.00;101514.59;5031969;28;20484;-61
2023/03/27 01:55:53;;;;;;;14.00;4.78;;;;;;;1.54;100.00;101527.44;5032307;28;20486;-61
2023/03/27 01:58:27;;;;;;;21.95;4.60;;;;;;;1.47;100.00;101526.03;5031624;28;20022;-61
2023/03/27 02:00:55;;;;;;;19.50;4.70;;;;;;;1.52;100.00;101517.13;5032255;28;20075;-61
2023/03/27 02:03:26;;;;;;;19.45;4.55;;;;;;;1.52;100.00;101522.19;5032171;28;20499;-61
2023/03/27 02:05:57;;;;;;;21.60;5.20;;;;;;;1.47;100.00;101521.88;5031540;28;20025;-61
2023/03/27 02:08:23;;;;;;;13.13;4.20;;;;;;;1.40;100.00;101531.44;5032178;28;20033;-61
2023/03/27 02:10:55;;;;;;;19.83;4.43;;;;;;;1.35;100.00;101537.81;5032173;28;20485;-61
2023/03/27 02:13:28;;;;;;;22.73;5.05;;;;;;;1.29;100.00;101534.03;5031637;28;20075;-61
2023/03/27 02:15:55;;;;;;;18.27;4.65;;;;;;;1.20;100.00;101545.09;5033368;28;20025;-61
2023/03/27 02:18:30;;;;;;;20.90;5.03;;;;;;;1.17;100.00;101548.28;5035843;28;20021;-61
2023/03/27 02:20:56;;;;;;;20.15;4.78;;;;;;;1.15;100.00;101557.47;5034602;28;20488;-61
2023/03/27 02:23:21;;;;;;;17.17;3.90;;;;;;;1.11;100.00;101557.97;5035652;28;20473;-61
2023/03/27 02:25:47;;;;;;;14.68;4.63;;;;;;;1.12;100.00;101560.63;5035740;28;20025;-61
2023/03/27 02:28:24;;;;;;;16.70;4.95;;;;;;;1.03;100.00;101564.97;5034690;28;20025;-61
2023/03/27 02:31:02;;;;;;;15.20;4.57;;;;;;;0.98;100.00;101566.25;5035846;28;20026;-61
2023/03/27 02:33:55;;;;;;;18.20;4.82;;;;;;;0.97;100.00;101572.13;5034735;28;20398;-61
2023/03/27 02:36:33;;;;;;;16.65;4.85;;;;;;;0.89;100.00;101566.44;5035609;28;20036;-61
2023/03/27 02:39:07;;;;;;;;;;;;;;;0.97;100.00;101570.44;5035682;28;20104;-61
2023/03/27 02:41:49;;;;;;;24.50;5.28;;;;;;;0.86;100.00;101576.31;5034665;28;19959;-61
2023/03/27 02:44:38;;;;;;;19.17;5.13;;;;;;;0.79;100.00;101574.94;5035013;28;20433;-61
2023/03/27 02:47:11;;;;;;;18.92;5.20;;;;;;;0.77;100.00;101581.53;5034116;28;20458;-61
2023/03/27 02:49:43;;;;;;;21.65;5.97;;;;;;;0.76;100.00;101581.41;5035073;28;20484;-61
2023/03/27 02:52:16;;;;;;;25.33;5.65;;;;;;;0.73;100.00;101588.78;5034862;28;20465;-61
2023/03/27 02:54:46;;;;;;;18.45;5.90;;;;;;;0.69;100.00;101584.22;5034555;28;20017;-61
2023/03/27 02:57:17;;;;;;;16.42;5.70;;;;;;;0.75;100.00;101592.31;5034949;28;20033;-61
2023/03/27 02:59:50;;;;;;;16.67;5.80;;;;;;;0.80;100.00;101593.56;5035106;28;20116;-61
2023/03/27 03:02:21;;;;;;;15.43;5.47;;;;;;;0.73;100.00;101589.66;5033853;28;20049;-60
2023/03/27 03:04:55;;;;;;;19.30;5.70;;;;;;;0.73;100.00;101598.94;5034911;28;20033;-61
2023/03/27 03:07:23;;;;;;;13.13;4.93;;;;;;;0.74;100.00;101593.97;5034963;28;20053;-61
2023/03/27 03:09:49;;;;;;;;;;;;;;;0.81;100.00;101591.19;5034437;28;20412;-61
2023/03/27 03:12:14;;;;;;;19.38;5.90;;;;;;;0.82;100.00;101609.81;5034487;28;19928;-61
2023/03/27 03:14:45;;;;;;;18.30;5.40;;;;;;;0.70;100.00;101617.34;5034927;28;20032;-61
2023/03/27 03:17:14;;;;;;;15.85;5.63;;;;;;;0.76;100.00;101609.31;5033481;28;20473;-61
2023/03/27 03:19:40;;;;;;;22.38;5.65;;;;;;;0.61;100.00;101624.19;5034609;28;20029;-61
2023/03/27 03:22:06;;;;;;;18.23;5.50;;;;;;;0.61;100.00;101625.06;5034185;28;20025;-61
2023/03/27 03:24:33;;;;;;;16.48;5.25;;;;;;;0.47;100.00;101628.13;5034397;28;20030;-61
2023/03/27 03:27:01;;;;;;;20.63;6.00;;;;;;;0.47;100.00;101626.47;5033933;28;20460;-61
2023/03/27 03:29:29;;;;;;;15.13;5.00;;;;;;;0.35;100.00;101634.69;5033663;28;20021;-61
2023/03/27 03:31:57;;;;;;;14.98;6.13;;;;;;;0.46;100.00;101633.94;5034210;28;20385;-61
2023/03/27 03:34:22;;;;;;;20.20;5.60;;;;;;;0.41;100.00;101637.75;5034503;28;20028;-60
2023/03/27 03:36:48;;;;;;;18.30;5.50;;;;;;;0.38;100.00;101635.84;5033631;28;20021;-59
2023/03/27 03:39:14;;;;;;;17.30;5.47;;;;;;;0.40;100.00;101641.03;5034023;28;20025;-60
2023/03/27 03:41:40;;;;;;;23.05;6.18;;;;;;;0.38;100.00;101645.13;5034307;28;20021;-59
2023/03/27 03:44:06;;;;;;;19.30;5.72;;;;;;;0.33;100.00;101663.34;5033189;28;20482;-59
2023/03/27 03:46:32;;;;;;;15.23;5.75;;;;;;;0.25;100.00;101659.28;5033957;28;20029;-59
2023/03/27 03:48:57;;;;;;;21.50;5.28;;;;;;;0.31;100.00;101667.41;5033710;28;20031;-60
2023/03/27 03:51:23;;;;;;;14.20;5.30;;;;;;;0.33;100.00;101672.59;5033490;28;20045;-60
2023/03/27 03:53:48;;;;;;;15.40;5.13;;;;;;;0.25;100.00;101666.91;5034153;28;20095;-59
2023/03/27 03:56:14;;;;;;;17.65;5.85;;;;;;;0.36;100.00;101666.91;5033877;28;20034;-59
2023/03/27 03:58:39;;;;;;;17.60;5.43;;;;;;;0.32;100.00;101676.81;5033065;28;20036;-59
2023/03/27 04:01:04;;;;;;;18.73;5.93;;;;;;;0.40;100.00;101679.97;5033217;28;20080;-60
2023/03/27 04:03:33;;;;;;;22.15;6.03;;;;;;;0.41;100.00;101681.72;5033975;28;20060;-59
2023/03/27 04:05:59;;;;;;;15.23;5.93;;;;;;;0.43;100.00;101685.31;5032701;28;20014;-59
2023/03/27 04:08:26;;;;;;;15.80;5.97;;;;;;;0.50;100.00;101691.78;5033824;28;20029;-59
2023/03/27 04:10:51;;;;;;;17.13;5.88;;;;;;;0.51;100.00;101693.56;5033740;28;20377;-59
2023/03/27 04:13:17;;;;;;;17.08;5.50;;;;;;;0.54;100.00;101683.66;5032447;28;20021;-59
2023/03/27 04:15:42;;;;;;;15.23;5.80;;;;;;;0.54;100.00;101693.78;5033566;28;20033;-59
2023/03/27 04:18:08;;;;;;;13.38;5.30;;;;;;;0.58;100.00;101698.41;5033166;28;20032;-59
2023/03/27 04:20:33;;;;;;;17.40;6.25;;;;;;;0.57;100.00;101706.75;5032867;28;20060;-59
2023/03/27 04:23:01;;;;;;;18.23;5.47;;;;;;;0.49;100.00;101707.75;5033207;28;20030;-59
2023/03/27 04:25:27;;;;;;;21.88;5.90;;;;;;;0.54;100.00;101709.00;5032702;28;20029;-59
2023/03/27 04:27:53;;;;;;;16.38;5.43;;;;;;;0.53;100.00;101717.41;5033201;28;20033;-59
2023/03/27 04:30:23;;;;;;;21.83;5.53;;;;;;;0.42;100.00;101724.09;5033434;28;20048;-59
2023/03/27 04:32:50;;;;;;;16.23;5.78;;;;;;;0.41;100.00;101717.25;5032730;28;20030;-59
2023/03/27 04:35:16;;;;;;;19.17;5.80;;;;;;;0.39;100.00;101728.91;5033037;28;20396;-59
2023/03/27 04:37:42;;;;;;;16.88;5.55;;;;;;;0.31;100.00;101734.97;5032937;28;20022;-59
2023/03/27 04:40:09;;;;;;;13.13;5.30;;;;;;;0.30;100.00;101736.63;5031946;28;20029;-59
2023/03/27 04:42:41;;;;;;;18.48;5.22;;;;;;;0.26;100.00;101744.75;5033123;28;20045;-59
2023/03/27 04:45:11;;;;;;;15.55;5.53;;;;;;;0.30;100.00;101748.44;5033046;28;20052;-59
2023/03/27 04:47:37;;;;;;;16.90;4.97;;;;;;;0.32;100.00;101752.88;5032354;28;20026;-59
2023/03/27 04:50:04;;;;;;;16.20;5.30;;;;;;;0.39;100.00;101750.84;5032693;28;20021;-59
2023/03/27 04:52:32;;;;;;;18.50;4.95;;;;;;;0.44;100.00;101752.13;5032869;28;20168;-59
2023/03/27 04:54:57;;;;;;;;;;;;;;;0.50;100.00;101757.72;5032377;28;20026;-60
2023/03/27 04:57:26;;;;;;;13.95;5.03;;;;;;;0.44;100.00;101757.19;5032966;28;19963;-59
2023/03/27 04:59:51;;;;;;;14.55;5.13;;;;;;;0.45;100.00;101758.97;5033068;28;20052;-59
2023/03/27 05:02:17;;;;;;;15.68;5.68;;;;;;;0.55;100.00;101760.66;5031606;28;20378;-59
2023/03/27 05:04:42;;;;;;;15.50;5.22;;;;;;;0.55;100.00;101766.59;5032975;28;20060;-59
2023/03/27 05:07:09;;;;;;;12.10;5.25;;;;;;;0.58;100.00;101765.97;5032404;28;20030;-59
2023/03/27 05:09:34;;;;;;;18.23;5.65;;;;;;;0.64;100.00;101772.44;5031904;28;20068;-59
2023/03/27 05:11:59;;;;;;;15.35;5.45;;;;;;;0.61;100.00;101773.88;5032528;28;20026;-59
2023/03/27 05:14:25;;;;;;;15.00;5.90;;;;;;;0.63;100.00;101779.94;5032941;28;20472;-59
2023/03/27 05:16:53;;;;;;;16.85;5.18;;;;;;;0.54;100.00;101780.03;5032194;28;20022;-59
2023/03/27 05:19:19;;;;;;;19.73;5.22;;;;;;;0.46;100.00;101793.72;5032663;28;20533;-59
2023/03/27 05:21:45;;;;;;;20.73;5.85;;;;;;;0.49;100.00;101786.38;5031863;28;20026;-59
2023/03/27 05:24:11;;;;;;;16.13;5.28;;;;;;;0.53;100.00;101792.59;5032225;28;20048;-59
2023/03/27 05:26:37;;;;;;;19.00;5.70;;;;;;;0.57;100.00;101798.06;5032731;28;20021;-59
2023/03/27 05:29:04;;;;;;;18.23;5.95;;;;;;;0.53;100.00;101806.19;5031665;28;20029;-59
2023/03/27 05:31:31;;;;;;;16.55;5.85;;;;;;;0.54;100.00;101807.94;5032709;28;20022;-59
2023/03/27 05:33:57;;;;;;;21.67;5.40;;;;;;;0.57;100.00;101809.84;5032147;28;20512;-59
2023/03/27 05:36:23;;;;;;;19.98;6.15;;;;;;;0.62;100.00;101808.59;5031889;28;20383;-59
2023/03/27 05:38:51;;;;;;;19.95;6.43;;;;;;;0.56;100.00;101813.16;5032445;28;20017;-59
2023/03/27 05:41:18;;;;;;;14.45;6.28;;;;;;;0.71;100.00;101813.56;5032032;28;20515;-59
2023/03/27 05:43:44;;;;;;;15.95;5.65;;;;;;;0.72;100.00;101806.09;5031841;28;20033;-60
2023/03/27 05:46:09;;;;;;;20.15;5.95;;;;;;;0.75;100.00;101815.59;5031975;28;20048;-59
2023/03/27 05:48:34;;;;;;;22.83;6.50;;;;;;;0.78;100.00;101821.84;5032288;28;20038;-59
2023/03/27 05:51:01;;;;;;;20.75;6.85;;;;;;;0.88;100.00;101828.59;5032914;28;20021;-60
2023/03/27 05:53:26;;;;;;;17.13;6.20;;;;;;;0.86;100.00;101832.63;5036091;28;20029;-59
2023/03/27 05:55:51;;;;;;;21.30;6.05;;;;;;;0.81;100.00;101836.44;5036283;28;20029;-59
2023/03/27 05:58:17;;;;;;;18.08;6.45;;;;;;;0.87;100.00;101838.63;5034922;28;20108;-59
2023/03/27 06:00:43;;;;;;;20.17;6.40;;;;;;;0.97;100.00;101847.13;5035980;28;20046;-59
2023/03/27 06:03:10;;;;;;;25.85;6.85;;;;;;;1.13;100.00;101856.03;5035817;28;20056;-59
2023/03/27 06:05:39;;;;;;;22.10;6.85;;;;;;;1.22;100.00;101872.03;5035184;28;20030;-59
2023/03/27 06:08:05;;;;;;;24.00;6.47;;;;;;;1.22;100.00;101873.69;5035426;28;20838;-59
2023/03/27 06:10:32;;;;;;;13.45;5.00;;;;;;;1.20;100.00;101873.56;5036028;28;20029;-59
2023/03/27 06:13:00;;;;;;;15.88;5.20;;;;;;;1.18;100.00;101885.25;5034723;28;20389;-59
2023/03/27 06:15:26;;;;;;;11.80;4.35;;;;;;;1.09;100.00;101875.19;5035928;28;20048;-59
2023/03/27 06:17:51;;;;;;;11.82;3.88;;;;;;;1.02;100.00;101856.78;5035778;28;20404;-59
2023/03/27 06:20:18;;;;;;;15.50;3.45;;;;;;;0.93;100.00;101870.47;5034626;28;20021;-59
2023/03/27 06:22:46;;;;;;;11.68;3.33;;;;;;;0.83;100.00;101870.47;5035795;28;20030;-59
2023/03/27 06:25:12;;;;;;;14.80;3.25;;;;;;;0.78;100.00;101871.72;5034714;28;20101;-59
2023/03/27 06:27:40;;;;;;;9.02;3.20;;;;;;;0.77;100.00;101875.88;5038891;28;20464;-59
2023/03/27 06:30:06;;;;;;;12.57;3.10;;;;;;;0.79;100.00;101878.56;5054979;28;20036;-59
2023/03/27 06:32:31;;;;;;;9.45;3.40;;;;;;;0.79;100.00;101876.03;5054566;28;20518;-59
2023/03/27 06:34:57;;;;;;;9.00;3.38;;;;;;;0.76;100.00;101880.81;5054808;28;20021;-60
2023/03/27 06:37:23;;;;;;;12.82;3.63;;;;;;;0.74;100.00;101883.25;5055313;28;20035;-59
2023/03/27 06:39:49;;;;;;;11.68;3.83;;;;;;;0.76;100.00;101890.97;5054635;28;20021;-59
2023/03/27 06:42:15;;;;;;;12.80;3.85;;;;;;;0.68;100.00;101895.38;5055023;28;20029;-59
2023/03/27 06:44:40;;;;;;;11.07;4.03;;;;;;;0.62;100.00;101900.84;5055207;28;20021;-59
2023/03/27 06:47:05;;;;;;;9.00;3.80;;;;;;;0.64;100.00;101894.22;5053858;28;20499;-59
2023/03/27 06:49:30;;;;;;;15.68;4.35;;;;;;;0.71;100.00;101895.69;5055026;28;20057;-59
2023/03/27 06:51:56;;;;;;;11.90;4.75;;;;;;;0.71;100.00;101900.75;5054921;28;20021;-59
2023/03/27 06:54:21;;;;;;;10.98;4.43;;;;;;;0.77;100.00;101908.00;5054657;28;20032;-59
2023/03/27 06:56:46;;;;;;;11.70;4.75;;;;;;;0.84;100.00;101912.84;5055018;28;20025;-59
2023/03/27 06:59:12;;;;;;;14.77;5.43;;;;;;;0.86;100.00;101915.50;5054597;28;20409;-59
2023/03/27 07:01:37;;;;;;;13.82;5.05;;;;;;;0.94;100.00;101917.97;5053458;28;20052;-59
2023/03/27 07:04:02;;;;;;;10.38;5.18;;;;;;;1.02;100.00;101923.69;5054445;28;20028;-59
2023/03/27 07:06:28;;;;;;;13.52;5.70;;;;;;;1.01;100.00;101929.53;5054514;28;20119;-59
2023/03/27 07:08:53;;;;;;;10.95;4.93;;;;;;;1.14;100.00;101926.38;5053736;28;20106;-59
2023/03/27 07:11:18;;;;;;;15.48;5.05;;;;;;;1.17;100.00;101929.16;5054711;28;20036;-59
2023/03/27 07:13:44;;;;;;;12.75;4.63;;;;;;;1.17;100.00;101934.25;5054565;28;20032;-59
2023/03/27 07:16:12;;;;;;;15.00;5.47;;;;;;;1.26;100.00;101940.09;5053482;28;20476;-59
2023/03/27 07:18:38;;;;;;;11.45;4.70;;;;;;;1.38;100.00;101944.44;5054551;28;20024;-59
2023/03/27 07:21:03;;;;;;;15.10;5.13;;;;;;;1.52;100.00;101943.06;5053987;28;20029;-58
2023/03/27 07:23:28;;;;;;;12.07;4.50;;;;;;;1.67;100.00;101949.44;5053838;28;20071;-59
2023/03/27 07:25:58;;;;;;;14.50;4.82;;;;;;;1.82;100.00;101949.78;5054311;28;20025;-59
2023/03/27 07:28:23;;;;;;;14.90;4.40;;;;;;;1.94;100.00;101950.81;5053652;28;20029;-59
2023/03/27 07:30:49;;;;;;;11.45;4.07;;;;;;;2.09;100.00;101950.28;5054370;28;20036;-59
2023/03/27 07:33:14;;;;;;;16.70;4.45;;;;;;;2.09;100.00;101950.28;5053978;28;20025;-59
2023/03/27 07:35:45;;;;;;;13.10;4.85;;;;;;;1.98;100.00;101960.47;5053376;28;20028;-59
2023/03/27 07:38:10;;;;;;;11.57;4.40;;;;;;;1.89;100.00;101957.19;5053854;28;20025;-59
2023/03/27 07:40:37;;;;;;;12.73;4.22;;;;;;;1.87;100.00;101958.69;5054400;28;20115;-59
2023/03/27 07:43:05;;;;;;;13.55;4.05;;;;;;;1.92;100.00;101962.50;5053181;28;20024;-59
2023/03/27 07:45:32;;;;;;;15.27;4.13;;;;;;;2.13;100.00;101965.03;5054052;28;20087;-59
2023/03/27 07:48:09;;;;;;;15.32;3.92;;;;;;;2.22;100.00;101968.34;5053496;28;20029;-59
2023/03/27 07:50:36;;;;;;;12.00;5.15;;;;;;;2.37;100.00;101972.91;5053137;28;20469;-59
2023/03/27 07:53:02;;;;;;;11.63;4.30;;;;;;;2.50;100.00;101965.47;5053573;28;20043;-59
2023/03/27 07:55:30;;;;;;;13.45;4.03;;;;;;;2.57;100.00;101971.94;5053740;28;20036;-59
2023/03/27 07:57:55;;;;;;;;;;;;;;;2.70;100.00;101963.63;5053236;28;20071;-59
2023/03/27 08:00:24;;;;;;;13.57;3.45;;;;;;;2.86;100.00;101971.72;5053680;28;19920;-59
2023/03/27 08:02:49;;;;;;;15.82;3.67;;;;;;;3.15;100.00;101964.56;5053627;28;20029;-59
2023/03/27 08:05:15;;;;;;;14.00;3.42;;;;;;;3.13;100.00;101977.19;5052729;28;20040;-59
2023/03/27 08:07:41;;;;;;;13.70;3.80;;;;;;;3.29;100.00;101980.16;5053536;28;20430;-59
2023/03/27 08:10:08;;;;;;;12.63;3.30;;;;;;;3.43;100.00;101982.88;5053363;28;20128;-59
2023/03/27 08:12:34;;;;;;;11.77;3.55;;;;;;;3.48;100.00;101989.22;5052365;28;20027;-59
2023/03/27 08:15:01;;;;;;;12.95;3.42;;;;;;;3.66;100.00;101991.41;5052577;28;20364;-58
2023/03/27 08:17:28;;;;;;;15.40;3.42;;;;;;;3.71;97.89;101995.19;5053582;28;20431;-59
2023/03/27 08:19:54;;;;;;;14.35;3.20;;;;;;;3.78;96.95;101983.03;5052512;28;20403;-60
2023/03/27 08:22:21;;;;;;;13.65;3.10;;;;;;;3.89;97.79;101988.03;5053446;28;20028;-60
2023/03/27 08:24:47;;;;;;;19.38;3.05;;;;;;;3.99;97.13;101999.81;5052590;28;20086;-59
2023/03/27 08:27:14;;;;;;;14.85;3.28;;;;;;;4.15;96.57;102002.72;5052975;28;20408;-61
2023/03/27 08:29:39;;;;;;;14.50;3.35;;;;;;;4.19;93.82;102001.31;5053062;28;20029;-59
2023/03/27 08:32:05;;;;;;;8.98;2.45;;;;;;;4.14;89.59;102008.59;5052341;28;20029;-59
2023/03/27 08:34:30;;;;;;;16.23;2.70;;;;;;;4.12;90.68;101999.97;5053066;28;20385;-60
2023/03/27 08:36:56;;;;;;;10.25;2.60;;;;;;;4.30;92.61;102005.53;5052817;28;20472;-60
2023/03/27 08:39:21;;;;;;;13.85;3.13;;;;;;;4.40;94.14;102007.09;5052384;28;20025;-60
2023/03/27 08:42:12;;;;;;;7.60;2.00;;;;;;;4.70;96.60;102007.53;5053006;28;20484;-58
2023/03/27 08:44:38;;;;;;;8.10;2.05;;;;;;;4.65;87.74;102019.09;5053150;28;20094;-59
2023/03/27 08:47:08;;;;;;;8.65;1.90;;;;;;;4.75;89.79;102008.75;5051910;28;20029;-59
2023/03/27 08:49:40;;;;;;;13.43;2.30;;;;;;;4.78;88.37;102004.75;5052969;28;20487;-59
2023/03/27 08:52:26;;;;;;;11.75;2.30;;;;;;;5.02;91.58;102014.06;5052416;28;20032;-59
2023/03/27 08:54:59;;;;;;;10.63;2.20;;;;;;;4.83;84.32;102019.53;5052394;28;20028;-60
2023/03/27 08:57:30;;;;;;;9.70;2.17;;;;;;;4.86;86.24;102018.09;5052970;28;20017;-59
2023/03/27 08:59:58;;;;;;;9.43;2.20;;;;;;;4.87;85.25;102029.22;5051679;28;20086;-60
2023/03/27 09:02:50;;;;;;;11.20;2.13;;;;;;;5.18;88.35;102028.84;5052660;28;20472;-59
2023/03/27 09:05:21;;;;;;;11.88;2.47;;;;;;;5.75;89.15;102043.00;5052536;28;20158;-59
2023/03/27 09:08:04;;;;;;;10.90;2.50;;;;;;;5.99;87.40;102046.38;5052165;28;20062;-60
2023/03/27 09:10:49;;;;;;;8.13;2.20;;;;;;;6.25;85.50;102039.56;5052782;28;20033;-60
2023/03/27 09:13:24;;;;;;;9.43;2.30;;;;;;;6.20;82.87;102051.16;5052283;28;20108;-60
2023/03/27 09:16:10;;;;;;;7.40;2.00;;;;;;;6.13;83.40;102043.84;5052100;28;20036;-60
2023/03/27 09:18:42;;;;;;;9.80;2.25;;;;;;;6.57;79.87;102048.44;5052460;28;20044;-59
2023/03/27 09:21:20;;;;;;;13.48;2.30;;;;;;;6.66;78.71;102048.16;5051740;28;20131;-59
2023/03/27 09:23:46;;;;;;;10.80;2.33;;;;;;;6.72;78.82;102071.63;5052896;28;20118;-60
2023/03/27 09:26:33;;;;;;;4.53;1.15;;;;;;;5.93;83.39;102081.75;5055712;28;20514;-60
2023/03/27 09:29:01;;;;;;;5.77;1.30;;;;;;;4.69;86.95;102097.72;5055603;28;20159;-59
2023/03/27 09:31:33;;;;;;;5.88;1.20;;;;;;;3.92;92.54;102098.81;5056583;28;20075;-59
2023/03/27 09:34:05;;;;;;;2.95;1.05;;;;;;;3.09;91.91;102100.00;5056144;28;20083;-61
2023/03/27 09:36:34;;;;;;;3.72;1.00;;;;;;;2.76;97.22;102091.41;5055974;28;20025;-59
2023/03/27 09:39:11;;;;;;;4.78;1.08;;;;;;;2.55;99.66;102091.44;5056321;28;20025;-60
2023/03/27 09:41:47;;;;;;;4.28;1.08;;;;;;;2.55;100.00;102088.88;5056497;28;20029;-60
2023/03/27 09:44:45;;;;;;;4.03;1.00;;;;;;;2.75;100.00;102097.25;5055373;28;20182;-60
2023/03/27 09:47:14;;;;;;;2.80;1.00;;;;;;;3.35;100.00;102098.63;5051567;28;20400;-60
2023/03/27 09:49:46;;;;;;;5.95;1.42;;;;;;;3.39;100.00;102095.56;5055655;28;20047;-60
2023/03/27 09:52:32;;;;;;;5.63;1.40;;;;;;;3.73;100.00;102085.44;5056002;28;20021;-60
2023/03/27 09:54:57;;;;;;;6.25;1.75;;;;;;;3.98;100.00;102092.41;5055740;28;20496;-59
2023/03/27 09:57:32;;;;;;;8.15;1.88;;;;;;;4.23;99.58;102096.03;5055633;28;20051;-60
2023/03/27 10:00:23;;;;;;;8.68;2.00;;;;;;;4.68;98.55;102106.16;5055903;28;20049;-60
2023/03/27 10:02:58;;;;;;;9.05;1.83;;;;;;;5.07;97.20;102102.16;5056015;28;20481;-59
2023/03/27 10:05:24;;;;;;;13.82;2.80;;;;;;;6.69;92.45;102089.38;5055460;28;20055;-59
2023/03/27 10:07:49;;;;;;;8.93;2.03;;;;;;;7.45;88.10;102091.56;5055990;28;20368;-59
2023/03/27 10:10:18;;;;;;;8.18;1.83;;;;;;;8.38;80.52;102098.91;5055100;28;20048;-60
2023/03/27 10:12:49;;;;;;;8.02;2.03;;;;;;;9.18;76.41;102094.00;5055914;28;20024;-60
2023/03/27 10:15:31;;;;;;;8.95;1.85;;;;;;;9.88;73.60;102094.34;5055614;28;20104;-59
2023/03/27 10:17:56;;;;;;;6.65;1.60;;;;;;;10.30;66.65;102091.34;5054615;28;20095;-60
2023/03/27 10:20:23;;;;;;;7.72;1.83;;;;;;;11.25;61.56;102088.19;5055977;28;20025;-59
2023/03/27 10:22:59;;;;;;;6.72;1.92;;;;;;;10.94;61.67;102094.50;5055909;28;20051;-59
2023/03/27 10:25:30;;;;;;;7.45;1.83;;;;;;;9.47;62.87;102095.59;5054804;28;20396;-60
2023/03/27 10:28:21;;;;;;;9.13;1.77;;;;;;;8.44;66.02;102092.38;5055030;28;20472;-61
2023/03/27 10:30:57;;;;;;;10.20;1.67;;;;;;;7.48;69.50;102102.03;5055479;28;20388;-60
2023/03/27 10:33:49;;;;;;;10.43;2.15;;;;;;;6.90;75.32;102097.53;5054618;28;20078;-60
2023/03/27 10:36:16;;;;;;;12.70;2.17;;;;;;;6.00;76.93;102103.53;5052849;28;20048;-60
2023/03/27 10:38:42;;;;;;;8.88;2.17;;;;;;;5.51;78.11;102099.31;5054625;28;20017;-60
2023/03/27 10:41:16;;;;;;;12.88;2.20;;;;;;;6.87;79.94;102099.94;5055127;28;20082;-59
2023/03/27 10:43:45;;;;;;;9.13;1.90;;;;;;;8.05;74.58;102101.25;5055243;28;20422;-59
2023/03/27 10:46:15;;;;;;;6.97;1.83;;;;;;;9.28;67.01;102092.84;5054068;28;20025;-59
2023/03/27 10:48:50;;;;;;;7.10;2.03;;;;;;;10.01;63.30;102110.47;5055398;28;20028;-59
2023/03/27 10:51:23;;;;;;;7.15;1.00;;;;;;;8.20;65.16;102133.81;5054720;28;20159;-59
2023/03/27 10:53:55;;;;;;;5.93;1.40;;;;;;;6.61;73.45;102141.75;5054146;28;20488;-59
2023/03/27 10:56:38;;;;;;;6.45;1.30;;;;;;;5.51;80.40;102149.59;5055139;28;20152;-60
2023/03/27 10:59:16;;;;;;;7.88;1.80;;;;;;;4.45;87.33;102153.81;5054700;28;20033;-59
2023/03/27 11:01:55;;;;;;;6.93;1.80;;;;;;;3.74;93.84;102179.00;5054551;28;20041;-59
2023/03/27 11:04:38;;;;;;;8.20;2.03;;;;;;;3.22;99.27;102166.44;5055025;28;20099;-60
2023/03/27 11:07:11;;;;;;;8.98;2.03;;;;;;;2.92;100.00;102168.28;5053655;28;20456;-59
2023/03/27 11:09:48;;;;;;;7.28;2.15;;;;;;;2.85;100.00;102167.66;5054852;28;20108;-59
2023/03/27 11:12:18;;;;;;;6.90;2.13;;;;;;;2.86;100.00;102175.41;5054563;28;20082;-59
2023/03/27 11:14:49;;;;;;;7.10;2.10;;;;;;;2.89;100.00;102175.69;5054175;28;20026;-59
2023/03/27 11:17:19;;;;;;;8.45;1.70;;;;;;;3.08;100.00;102174.63;5054385;28;20586;-60
2023/03/27 11:19:51;;;;;;;5.47;1.88;;;;;;;4.06;100.00;102176.41;5054739;28;20028;-59
2023/03/27 11:22:28;;;;;;;6.82;1.70;;;;;;;4.52;100.00;102171.41;5053439;28;20083;-59
2023/03/27 11:24:59;;;;;;;7.60;1.50;;;;;;;5.91;94.53;102163.53;5054529;28;20029;-59
2023/03/27 11:27:37;;;;;;;6.85;1.48;;;;;;;7.25;88.45;102166.47;5053943;28;20036;-59
2023/03/27 11:30:15;;;;;;;;;;;;;;;7.94;88.43;102160.44;5054530;28;20469;-59
2023/03/27 11:33:09;;;;;;;6.88;1.40;;;;;;;9.40;75.60;102157.84;5054335;28;19915;-59
2023/03/27 11:35:42;;;;;;;8.57;1.50;;;;;;;10.63;72.48;102165.19;5053352;28;20503;-58
2023/03/27 11:38:17;;;;;;;6.68;1.50;;;;;;;11.48;66.67;102154.69;5054022;28;20036;-58